createdAt,value
2023-02-08T00:04:29.390Z,101829.00
2023-02-08T00:09:31.646Z,101866.34
2023-02-08T00:14:33.743Z,101854.00
2023-02-08T00:19:39.129Z,101817.31
2023-02-08T00:24:41.250Z,101855.75
2023-02-08T00:29:43.419Z,101871.50
2023-02-08T00:34:45.556Z,101837.16
2023-02-08T00:39:47.638Z,101871.81
2023-02-08T00:44:49.766Z,101863.44
2023-02-08T00:49:52.160Z,101858.91
2023-02-08T00:54:54.247Z,101856.47
2023-02-08T00:59:56.348Z,101856.06
2023-02-08T01:04:58.446Z,101864.66
2023-02-08T01:10:00.883Z,101844.66
2023-02-08T01:15:03.025Z,101828.16
2023-02-08T01:20:06.656Z,101829.38
2023-02-08T01:25:08.929Z,101842.59
2023-02-08T01:30:12.414Z,101770.06
2023-02-08T01:35:14.757Z,101815.59
2023-02-08T01:40:17.072Z,101842.19
2023-02-08T01:45:24.819Z,101831.19
2023-02-08T01:50:32.849Z,101833.41
2023-02-08T01:55:40.214Z,101830.28
2023-02-08T02:00:42.772Z,101861.31
2023-02-08T02:05:50.896Z,101848.75
2023-02-08T02:10:53.073Z,101837.00
2023-02-08T02:15:55.472Z,101830.09
2023-02-08T02:21:16.916Z,101823.69
2023-02-08T02:26:52.890Z,101823.59
2023-02-08T02:32:22.626Z,101821.19
2023-02-08T02:37:52.303Z,101814.50
2023-02-08T02:43:24.273Z,101821.06
2023-02-08T02:48:59.216Z,101809.69
2023-02-08T02:54:04.936Z,101818.81
2023-02-08T02:59:09.958Z,101790.69
2023-02-08T03:04:17.971Z,101812.81
2023-02-08T03:09:31.839Z,101756.28
2023-02-08T03:14:59.917Z,101796.69
2023-02-08T03:20:25.395Z,101759.28
2023-02-08T03:25:35.447Z,101784.69
2023-02-08T03:31:17.766Z,101728.50
2023-02-08T03:36:33.353Z,101771.97
2023-02-08T03:41:39.298Z,101754.50
2023-02-08T03:46:44.878Z,101783.97
2023-02-08T03:51:47.202Z,101749.31
2023-02-08T03:56:56.472Z,101738.22
2023-02-08T04:02:02.597Z,101762.56
2023-02-08T04:07:05.472Z,101718.53
2023-02-08T04:12:08.243Z,101726.56
2023-02-08T04:17:10.583Z,101744.88
2023-02-08T04:22:12.930Z,101739.44
2023-02-08T04:27:15.249Z,101751.31
2023-02-08T04:32:17.500Z,101695.28
2023-02-08T04:37:19.739Z,101724.56
2023-02-08T04:42:22.020Z,101724.44
2023-02-08T04:47:24.281Z,101739.03
2023-02-08T04:52:26.588Z,101730.91
2023-02-08T04:57:28.817Z,101741.88
2023-02-08T05:02:31.029Z,101726.28
2023-02-08T05:07:33.787Z,101703.59
2023-02-08T05:12:36.137Z,101712.75
2023-02-08T05:17:39.143Z,101699.22
2023-02-08T05:22:41.690Z,101698.63
2023-02-08T05:27:43.907Z,101705.44
2023-02-08T05:32:46.140Z,101705.59
2023-02-08T05:37:48.351Z,101706.66
2023-02-08T05:42:50.663Z,101720.81
2023-02-08T05:47:52.860Z,101700.97
2023-02-08T05:52:55.113Z,101714.50
2023-02-08T05:57:57.577Z,101695.13
2023-02-08T06:02:59.906Z,101723.06
2023-02-08T06:08:02.149Z,101695.28
2023-02-08T06:13:05.026Z,101710.19
2023-02-08T06:18:08.260Z,101713.03
2023-02-08T06:23:10.537Z,101704.81
2023-02-08T06:28:12.928Z,101721.19
2023-02-08T06:33:15.911Z,101704.06
2023-02-08T06:38:18.301Z,101685.75
2023-02-08T06:43:20.918Z,101693.88
2023-02-08T06:48:23.106Z,101703.66
2023-02-08T06:53:25.448Z,101665.22
2023-02-08T06:58:27.636Z,101679.50
2023-02-08T07:03:29.878Z,101686.13
2023-02-08T07:08:33.741Z,101661.50
2023-02-08T07:13:36.906Z,101660.00
2023-02-08T07:18:39.068Z,101668.00
2023-02-08T07:23:41.773Z,101665.16
2023-02-08T07:28:44.342Z,101659.31
2023-02-08T07:33:46.708Z,101653.75
2023-02-08T07:38:48.969Z,101685.72
2023-02-08T07:43:51.198Z,101638.00
2023-02-08T07:48:53.759Z,101668.00
2023-02-08T07:53:55.990Z,101652.44
2023-02-08T07:58:58.321Z,101649.09
2023-02-08T08:04:00.502Z,101660.94
2023-02-08T08:09:03.469Z,101653.75
2023-02-08T08:14:07.895Z,101650.75
2023-02-08T08:19:10.125Z,101653.75
2023-02-08T08:24:12.350Z,101606.06
2023-02-08T08:29:15.147Z,101591.06
2023-02-08T08:34:17.260Z,101636.38
2023-02-08T08:39:19.418Z,101630.81
2023-02-08T08:44:21.644Z,101620.75
2023-02-08T08:49:24.898Z,101586.53
2023-02-08T08:54:27.080Z,101614.31
2023-02-08T08:59:29.503Z,101578.75
2023-02-08T09:04:31.875Z,101556.09
2023-02-08T09:09:35.219Z,101588.34
2023-02-08T09:14:37.350Z,101592.97
2023-02-08T09:19:40.119Z,101607.53
2023-02-08T09:25:02.481Z,101602.72
2023-02-08T09:30:05.835Z,101560.41
2023-02-08T09:35:13.569Z,101580.63
2023-02-08T09:40:31.201Z,101565.63
2023-02-08T09:45:59.814Z,101578.28
2023-02-08T09:51:34.339Z,101557.88
2023-02-08T09:56:40.683Z,101544.53
2023-02-08T10:01:43.256Z,101506.16
2023-02-08T10:06:45.693Z,101537.28
2023-02-08T10:12:12.420Z,101525.38
2023-02-08T10:17:45.615Z,101532.16
2023-02-08T10:23:13.292Z,101525.03
2023-02-08T10:29:01.281Z,101546.81
2023-02-08T10:34:27.054Z,101308.06
2023-02-08T10:39:31.557Z,101517.16
2023-02-08T10:44:54.249Z,101488.41
2023-02-08T10:50:21.279Z,101517.84
2023-02-08T10:55:29.701Z,101516.47
2023-02-08T11:00:35.274Z,101493.28
2023-02-08T11:05:38.559Z,101516.00
2023-02-08T11:10:40.948Z,101476.66
2023-02-08T11:15:47.809Z,101461.44
2023-02-08T11:21:12.274Z,101506.06
2023-02-08T11:26:35.565Z,101504.81
2023-02-08T11:32:13.826Z,101472.41
2023-02-08T11:38:02.270Z,101499.69
2023-02-08T11:43:05.369Z,101416.41
2023-02-08T11:48:22.399Z,101398.03
2023-02-08T11:53:32.517Z,101472.84
2023-02-08T11:58:35.128Z,101388.56
2023-02-08T12:03:39.450Z,101440.50
2023-02-08T12:09:23.767Z,101462.28
2023-02-08T12:14:38.013Z,101446.78
2023-02-08T12:20:17.593Z,101438.88
2023-02-08T12:26:10.442Z,101404.03
2023-02-08T12:31:32.103Z,101122.75
2023-02-08T12:36:47.170Z,101418.66
2023-02-08T12:41:57.711Z,101392.13
2023-02-08T12:47:27.697Z,101414.31
2023-02-08T12:52:45.349Z,101379.59
2023-02-08T12:57:53.769Z,101408.94
2023-02-08T13:03:02.537Z,101360.53
2023-02-08T13:08:17.655Z,101367.19
2023-02-08T13:13:23.620Z,101373.72
2023-02-08T13:18:30.868Z,101315.09
2023-02-08T13:23:50.574Z,101352.59
2023-02-08T13:28:56.108Z,101380.38
2023-02-08T13:34:02.570Z,101370.78
2023-02-08T13:39:12.541Z,101356.72
2023-02-08T13:44:45.685Z,101364.53
2023-02-08T13:49:51.072Z,101371.16
2023-02-08T13:55:39.865Z,101368.88
2023-02-08T14:01:16.732Z,101360.53
2023-02-08T14:06:50.836Z,101334.16
2023-02-08T14:12:04.255Z,101172.41
2023-02-08T14:17:16.986Z,101132.63
2023-02-08T14:22:19.531Z,101301.06
2023-02-08T14:27:27.253Z,101382.25
2023-02-08T14:32:32.144Z,101378.06
2023-02-08T14:37:36.507Z,101368.47
2023-02-08T14:43:01.368Z,101354.38
2023-02-08T14:48:09.963Z,101361.56
2023-02-08T14:53:12.122Z,101352.97
2023-02-08T14:58:18.923Z,101332.44
2023-02-08T15:03:21.332Z,101369.59
2023-02-08T15:08:23.757Z,101309.91
2023-02-08T15:13:26.165Z,101333.75
2023-02-08T15:18:31.362Z,101336.19
2023-02-08T15:23:33.712Z,101335.31
2023-02-08T15:28:36.968Z,101325.44
2023-02-08T15:33:40.938Z,101343.50
2023-02-08T15:38:45.174Z,101326.59
2023-02-08T15:43:48.081Z,101326.56
2023-02-08T15:48:50.661Z,101345.81
2023-02-08T15:53:54.281Z,101344.78
2023-02-08T15:58:58.313Z,101327.75
2023-02-08T16:04:03.120Z,101304.97
2023-02-08T16:09:05.970Z,101313.28
2023-02-08T16:14:08.432Z,101318.63
2023-02-08T16:19:26.868Z,101347.44
2023-02-08T16:24:29.071Z,101315.56
2023-02-08T16:29:37.594Z,101334.13
2023-02-08T16:34:40.195Z,101336.03
2023-02-08T16:39:52.528Z,101346.94
2023-02-08T16:45:15.759Z,101344.78
2023-02-08T16:50:26.478Z,101345.25
2023-02-08T16:55:46.893Z,101324.00
2023-02-08T17:00:54.500Z,101200.81
2023-02-08T17:05:56.896Z,101356.91
2023-02-08T17:10:59.304Z,101324.75
2023-02-08T17:16:01.626Z,101323.72
2023-02-08T17:21:05.329Z,101340.41
2023-02-08T17:26:12.751Z,101327.72
2023-02-08T17:31:32.815Z,101328.84
2023-02-08T17:36:42.396Z,101192.63
2023-02-08T17:41:48.497Z,101092.72
2023-02-08T17:46:50.734Z,101266.94
2023-02-08T17:51:58.407Z,101265.78
2023-02-08T17:57:00.594Z,101301.25
2023-02-08T18:02:06.462Z,101305.84
2023-02-08T18:07:08.599Z,101288.84
2023-02-08T18:12:10.828Z,101259.03
2023-02-08T18:17:15.848Z,101299.75
2023-02-08T18:22:20.213Z,101291.03
2023-02-08T18:27:25.192Z,101297.44
2023-02-08T18:32:28.492Z,101277.34
2023-02-08T18:37:31.144Z,101289.13
2023-02-08T18:42:36.637Z,101266.09
2023-02-08T18:47:39.796Z,101235.25
2023-02-08T18:52:45.379Z,101217.44
2023-02-08T18:57:48.429Z,101253.31
2023-02-08T19:02:50.705Z,101260.84
2023-02-08T19:07:52.870Z,101264.44
2023-02-08T19:12:55.151Z,101263.00
2023-02-08T19:17:59.335Z,101256.63
2023-02-08T19:23:02.052Z,101212.09
2023-02-08T19:28:06.431Z,101224.38
2023-02-08T19:33:10.246Z,101226.69
2023-02-08T19:38:12.425Z,101234.09
2023-02-08T19:43:14.606Z,101205.06
2023-02-08T19:48:16.818Z,101236.38
2023-02-08T19:53:18.984Z,101204.94
2023-02-08T19:58:21.102Z,101219.66
2023-02-08T20:03:23.815Z,101196.38
2023-02-08T20:08:27.430Z,101197.41
2023-02-08T20:13:29.637Z,101202.63
2023-02-08T20:18:31.840Z,101203.78
2023-02-08T20:23:34.167Z,101158.25
2023-02-08T20:28:40.321Z,101212.47
2023-02-08T20:33:45.676Z,101206.59
2023-02-08T20:38:54.684Z,101189.47
2023-02-08T20:43:57.981Z,101165.28
2023-02-08T20:49:03.429Z,101182.16
2023-02-08T20:54:05.738Z,101161.22
2023-02-08T20:59:10.337Z,101172.44
2023-02-08T21:04:13.866Z,101157.47
2023-02-08T21:09:18.319Z,101182.41
2023-02-08T21:14:27.399Z,101167.69
2023-02-08T21:19:42.079Z,101193.16
2023-02-08T21:24:44.517Z,101201.47
2023-02-08T21:29:53.047Z,101199.94
2023-02-08T21:34:55.606Z,101202.50
2023-02-08T21:39:58.123Z,101136.78
2023-02-08T21:45:00.610Z,101200.97
2023-02-08T21:50:21.469Z,101161.97
2023-02-08T21:55:24.003Z,101153.00
2023-02-08T22:00:26.519Z,101182.66
2023-02-08T22:05:47.546Z,101194.06
2023-02-08T22:10:58.317Z,101207.47
2023-02-08T22:16:02.654Z,101164.63
2023-02-08T22:21:05.287Z,101166.53
2023-02-08T22:26:09.048Z,101203.75
2023-02-08T22:31:13.980Z,101202.22
2023-02-08T22:36:16.145Z,101208.09
2023-02-08T22:41:18.593Z,101149.66
2023-02-08T22:46:21.281Z,101165.00
2023-02-08T22:51:23.858Z,101190.44
2023-02-08T22:56:25.971Z,101165.53
2023-02-08T23:01:29.103Z,101169.47
2023-02-08T23:06:31.342Z,101187.38
2023-02-08T23:11:34.007Z,101136.72
2023-02-08T23:16:36.297Z,101152.19
2023-02-08T23:21:39.771Z,101174.97
2023-02-08T23:26:42.112Z,101147.59
2023-02-08T23:31:45.236Z,101179.91
2023-02-08T23:36:47.571Z,101158.22
2023-02-08T23:41:49.668Z,101192.97
2023-02-08T23:46:51.963Z,101160.88
2023-02-08T23:51:54.084Z,101172.25
2023-02-08T23:56:56.213Z,101171.25
